Time;durP1;ratioP1;P1;durP2;ratioP2;P2;SDS_P1;SDS_P2;PMS_P1;PMS_P2;Temp;Humidity;BMP_temperature;BMP_pressure;BME280_temperature;BME280_humidity;BME280_pressure;Samples;Min_cycle;Max_cycle;Signal;HPM_P1;HPM_P2
2023/05/18 00:02:06;;;;;;;;;;;14.10;99.90;;;;;;5071034;28;19935;-77
2023/05/18 00:04:35;;;;;;;;;;;14.10;99.90;;;;;;5071150;28;20006;-76
2023/05/18 00:07:05;;;;;;;;;;;14.10;99.90;;;;;;5086556;28;19908;-76
2023/05/18 00:09:32;;;;;;;;;;;14.10;99.90;;;;;;5070917;28;20006;-77
2023/05/18 00:11:57;;;;;;;;;;;14.00;99.90;;;;;;5071124;28;19960;-76
2023/05/18 00:14:23;;;;;;;;;;;14.00;99.90;;;;;;5071040;28;19991;-76
2023/05/18 00:16:49;;;;;;;;;;;14.00;99.90;;;;;;5070758;28;19916;-76
2023/05/18 00:19:15;;;;;;;;;;;14.00;99.90;;;;;;5070791;28;19908;-74
2023/05/18 00:21:45;;;;;;;;;;;14.00;99.90;;;;;;5070730;28;19908;-78
2023/05/18 00:24:11;;;;;;;;;;;14.00;99.90;;;;;;5070758;28;19943;-77
2023/05/18 00:26:40;;;;;;;;;;;14.00;99.90;;;;;;5070568;28;19936;-77
2023/05/18 00:29:06;;;;;;;;;;;13.90;99.90;;;;;;5070418;28;19920;-77
2023/05/18 00:31:35;;;;;;;;;;;13.90;99.90;;;;;;5070502;28;19965;-76
2023/05/18 00:34:18;;;;;;;;;;;13.90;99.90;;;;;;5070498;28;19915;-74
2023/05/18 00:36:44;;;;;;;;;;;13.90;99.90;;;;;;5070058;28;19912;-77
2023/05/18 00:39:10;;;;;;;;;;;13.90;99.90;;;;;;5070485;28;19908;-76
2023/05/18 00:41:35;;;;;;;;;;;13.90;99.90;;;;;;5070414;28;19910;-77
2023/05/18 00:44:01;;;;;;;;;;;13.90;99.90;;;;;;5070406;28;20001;-77
2023/05/18 00:46:27;;;;;;;;;;;13.90;99.90;;;;;;5070349;28;20395;-76
2023/05/18 00:48:53;;;;;;;;;;;13.80;99.90;;;;;;5070063;28;20400;-76
2023/05/18 00:51:20;;;;;;;;;;;13.80;99.90;;;;;;5069001;28;20080;-76
2023/05/18 00:53:45;;;;;;;;;;;13.80;99.90;;;;;;5070066;28;20598;-76
2023/05/18 00:56:11;;;;;;;;;;;13.70;99.90;;;;;;5070128;28;19908;-77
2023/05/18 00:58:40;;;;;;;;;;;13.70;99.90;;;;;;5069993;28;20295;-77
2023/05/18 01:01:08;;;;;;;;;;;13.70;99.90;;;;;;5070040;28;20387;-77
2023/05/18 01:03:36;;;;;;;;;;;13.60;99.90;;;;;;5070127;28;19908;-77
2023/05/18 01:06:05;;;;;;;;;;;13.50;99.90;;;;;;5085226;28;19915;-77
2023/05/18 01:08:32;;;;;;;;;;;13.50;99.90;;;;;;5069702;28;20059;-76
2023/05/18 01:11:16;;;;;;;;;;;13.50;99.90;;;;;;5069738;28;20735;-76
2023/05/18 01:13:50;;;;;;;;;;;13.40;99.90;;;;;;5069926;28;19904;-76
2023/05/18 01:16:20;;;;;;;;;;;13.50;99.90;;;;;;5069571;28;19904;-78
2023/05/18 01:18:50;;;;;;;;;;;13.40;99.90;;;;;;5069404;28;19911;-78
2023/05/18 01:21:18;;;;;;;;;;;13.40;99.90;;;;;;5069410;28;19905;-78
2023/05/18 01:23:51;;;;;;;;;;;13.40;99.90;;;;;;5069573;28;19908;-78
2023/05/18 01:26:31;;;;;;;;;;;13.40;99.90;;;;;;5069561;28;20466;-77
2023/05/18 01:29:01;;;;;;;;;;;13.40;99.90;;;;;;5084423;28;20483;-76
2023/05/18 01:31:27;;;;;;;;;;;13.40;99.90;;;;;;5084332;28;20028;-77
2023/05/18 01:33:53;;;;;;;;;;;13.40;99.90;;;;;;5069551;28;19939;-77
2023/05/18 01:36:18;;;;;;;;;;;13.40;99.90;;;;;;5069773;28;19911;-76
2023/05/18 01:38:44;;;;;;;;;;;13.40;99.90;;;;;;5069108;28;20403;-77
2023/05/18 01:41:16;;;;;;;;;;;13.40;99.90;;;;;;5069397;28;19997;-76
2023/05/18 01:43:44;;;;;;;;;;;13.30;99.90;;;;;;5069206;28;19916;-76
2023/05/18 01:46:16;;;;;;;;;;;13.30;99.90;;;;;;5069169;28;20401;-76
2023/05/18 01:48:47;;;;;;;;;;;13.30;99.90;;;;;;5067653;28;19908;-76
2023/05/18 01:51:12;;;;;;;;;;;13.30;99.90;;;;;;5084893;28;19923;-76
2023/05/18 01:53:42;;;;;;;;;;;13.30;99.90;;;;;;5069064;28;20352;-77
2023/05/18 01:56:09;;;;;;;;;;;13.30;99.90;;;;;;5069007;28;19904;-77
2023/05/18 01:58:36;;;;;;;;;;;13.30;99.90;;;;;;5068940;28;19912;-76
2023/05/18 02:01:02;;;;;;;;;;;13.30;99.90;;;;;;5067739;28;19911;-76
2023/05/18 02:03:30;;;;;;;;;;;13.30;99.90;;;;;;5069047;28;19974;-76
2023/05/18 02:05:55;;;;;;;;;;;13.20;99.90;;;;;;5068889;28;19911;-75
2023/05/18 02:08:21;;;;;;;;;;;13.20;99.90;;;;;;5068969;28;19995;-76
2023/05/18 02:10:46;;;;;;;;;;;13.20;99.90;;;;;;5068513;28;20373;-76
2023/05/18 02:13:12;;;;;;;;;;;13.20;99.90;;;;;;5068620;28;19911;-75
2023/05/18 02:15:37;;;;;;;;;;;13.20;99.90;;;;;;5068608;28;19905;-76
2023/05/18 02:18:03;;;;;;;;;;;13.20;99.90;;;;;;5084737;28;19915;-75
2023/05/18 02:20:32;;;;;;;;;;;13.20;99.90;;;;;;5068881;28;20011;-76
2023/05/18 02:22:58;;;;;;;;;;;13.20;99.90;;;;;;5068669;28;19908;-75
2023/05/18 02:25:23;;;;;;;;;;;13.20;99.90;;;;;;5068668;28;19955;-77
2023/05/18 02:27:49;;;;;;;;;;;13.20;99.90;;;;;;5068763;28;20646;-76
2023/05/18 02:30:15;;;;;;;;;;;13.20;99.90;;;;;;5068577;28;20304;-76
2023/05/18 02:32:41;;;;;;;;;;;13.20;99.90;;;;;;5068740;28;19909;-77
2023/05/18 02:35:07;;;;;;;;;;;13.10;99.90;;;;;;5084209;28;19918;-76
2023/05/18 02:37:41;;;;;;;;;;;13.10;99.90;;;;;;5068690;28;20713;-76
2023/05/18 02:40:10;;;;;;;;;;;13.10;99.90;;;;;;5068719;28;19908;-76
2023/05/18 02:42:35;;;;;;;;;;;13.10;99.90;;;;;;5068366;28;19908;-76
2023/05/18 02:45:01;;;;;;;;;;;13.10;99.90;;;;;;5072061;28;19912;-76
2023/05/18 02:47:26;;;;;;;;;;;13.10;99.90;;;;;;5072569;28;19904;-76
2023/05/18 02:49:52;;;;;;;;;;;13.10;99.90;;;;;;5072505;28;19916;-77
2023/05/18 02:52:17;;;;;;;;;;;13.00;99.90;;;;;;5072608;28;19908;-76
2023/05/18 02:54:43;;;;;;;;;;;13.10;99.90;;;;;;5072344;28;19915;-76
2023/05/18 02:57:10;;;;;;;;;;;13.00;99.90;;;;;;5072460;28;19911;-76
2023/05/18 02:59:36;;;;;;;;;;;13.00;99.90;;;;;;5072173;28;19904;-76
2023/05/18 03:02:02;;;;;;;;;;;13.10;99.90;;;;;;5072444;28;20373;-76
2023/05/18 03:04:27;;;;;;;;;;;13.10;99.90;;;;;;5072260;28;19955;-78
2023/05/18 03:06:53;;;;;;;;;;;13.10;99.90;;;;;;5087557;28;19908;-78
2023/05/18 03:09:18;;;;;;;;;;;13.00;99.90;;;;;;5071506;28;19923;-77
2023/05/18 03:11:44;;;;;;;;;;;13.00;99.90;;;;;;5072158;28;20300;-76
2023/05/18 03:14:10;;;;;;;;;;;12.90;99.90;;;;;;5087740;28;20297;-76
2023/05/18 03:16:37;;;;;;;;;;;12.70;99.90;;;;;;5072059;28;19904;-77
2023/05/18 03:19:03;;;;;;;;;;;12.70;99.90;;;;;;5072440;28;19998;-78
2023/05/18 03:21:32;;;;;;;;;;;12.70;99.90;;;;;;5071984;28;19927;-78
2023/05/18 03:23:58;;;;;;;;;;;12.70;99.90;;;;;;5071709;28;20452;-77
2023/05/18 03:26:24;;;;;;;;;;;12.70;99.90;;;;;;5071855;28;20049;-75
2023/05/18 03:28:50;;;;;;;;;;;12.70;99.90;;;;;;5071559;28;20462;-79
2023/05/18 03:31:16;;;;;;;;;;;12.60;99.90;;;;;;5071560;28;20370;-77
2023/05/18 03:33:42;;;;;;;;;;;12.60;99.90;;;;;;5071526;28;20413;-77
2023/05/18 03:36:07;;;;;;;;;;;12.60;99.90;;;;;;5071661;28;19909;-76
2023/05/18 03:38:33;;;;;;;;;;;12.60;99.90;;;;;;5071576;28;19904;-76
2023/05/18 03:40:58;;;;;;;;;;;12.60;99.90;;;;;;5071571;28;19908;-75
2023/05/18 03:43:24;;;;;;;;;;;12.60;99.90;;;;;;5071253;28;19908;-75
2023/05/18 03:45:50;;;;;;;;;;;12.70;99.90;;;;;;5087231;28;19985;-75
2023/05/18 03:48:16;;;;;;;;;;;12.70;99.90;;;;;;5071414;28;19948;-75
2023/05/18 03:50:42;;;;;;;;;;;12.70;99.90;;;;;;5071222;28;19959;-75
2023/05/18 03:53:08;;;;;;;;;;;12.60;99.90;;;;;;5071498;28;20692;-76
2023/05/18 03:55:33;;;;;;;;;;;12.60;99.90;;;;;;5086143;28;19989;-76
2023/05/18 03:57:59;;;;;;;;;;;12.60;99.90;;;;;;5071218;28;19908;-75
2023/05/18 04:00:25;;;;;;;;;;;12.60;99.90;;;;;;5086968;28;19917;-74
2023/05/18 04:02:50;;;;;;;;;;;12.50;99.90;;;;;;5086787;28;20411;-76
2023/05/18 04:05:16;;;;;;;;;;;12.50;99.90;;;;;;5071103;28;19951;-77
2023/05/18 04:07:45;;;;;;;;;;;12.40;99.90;;;;;;5071186;28;19908;-77
2023/05/18 04:10:13;;;;;;;;;;;12.40;99.90;;;;;;5086524;28;19932;-77
2023/05/18 04:12:39;;;;;;;;;;;12.50;99.90;;;;;;5070972;28;19908;-78
2023/05/18 04:15:04;;;;;;;;;;;12.50;99.90;;;;;;5070848;28;19961;-77
2023/05/18 04:17:30;;;;;;;;;;;12.50;99.90;;;;;;5070710;28;19908;-78
2023/05/18 04:19:56;;;;;;;;;;;12.50;99.90;;;;;;5070686;28;19962;-76
2023/05/18 04:22:21;;;;;;;;;;;12.50;99.90;;;;;;5070673;28;20377;-76
2023/05/18 04:24:47;;;;;;;;;;;12.60;99.90;;;;;;5070423;28;20386;-77
2023/05/18 04:27:13;;;;;;;;;;;12.70;99.90;;;;;;5070657;28;19904;-77
2023/05/18 04:29:39;;;;;;;;;;;12.70;99.90;;;;;;5086022;28;20407;-76
2023/05/18 04:32:09;;;;;;;;;;;12.70;99.90;;;;;;5070666;28;19908;-77
2023/05/18 04:34:36;;;;;;;;;;;12.70;99.90;;;;;;5085923;28;19965;-77
2023/05/18 04:37:04;;;;;;;;;;;12.60;99.90;;;;;;5085970;28;19904;-77
2023/05/18 04:39:30;;;;;;;;;;;12.60;99.90;;;;;;5070444;28;19904;-77
2023/05/18 04:41:58;;;;;;;;;;;12.60;99.90;;;;;;5070290;28;19915;-78
2023/05/18 04:44:27;;;;;;;;;;;12.60;99.90;;;;;;5070475;28;19927;-76
2023/05/18 04:46:53;;;;;;;;;;;12.80;99.90;;;;;;5085776;28;20011;-78
2023/05/18 04:49:22;;;;;;;;;;;12.70;99.90;;;;;;5070153;28;20003;-77
2023/05/18 04:51:54;;;;;;;;;;;12.70;99.90;;;;;;5070448;28;20334;-74
2023/05/18 04:54:29;;;;;;;;;;;12.70;99.90;;;;;;5070192;28;19914;-76
2023/05/18 04:56:55;;;;;;;;;;;12.80;99.90;;;;;;5070089;28;20351;-76
2023/05/18 04:59:24;;;;;;;;;;;12.80;99.90;;;;;;5069978;28;20435;-76
2023/05/18 05:01:53;;;;;;;;;;;12.80;99.90;;;;;;5085573;28;19904;-75
2023/05/18 05:04:22;;;;;;;;;;;12.80;99.90;;;;;;5069826;28;19915;-75
2023/05/18 05:06:48;;;;;;;;;;;12.80;99.90;;;;;;5084332;28;20702;-75
2023/05/18 05:09:13;;;;;;;;;;;12.80;99.90;;;;;;5085419;28;19979;-76
2023/05/18 05:11:40;;;;;;;;;;;12.80;99.90;;;;;;5069750;28;19909;-75
2023/05/18 05:14:05;;;;;;;;;;;12.70;99.90;;;;;;5069586;28;20372;-74
2023/05/18 05:16:31;;;;;;;;;;;12.70;99.90;;;;;;5069580;28;19914;-75
2023/05/18 05:18:56;;;;;;;;;;;12.70;99.90;;;;;;5069338;28;19908;-76
2023/05/18 05:21:22;;;;;;;;;;;12.70;99.90;;;;;;5069451;28;19931;-74
2023/05/18 05:23:48;;;;;;;;;;;12.70;99.90;;;;;;5085136;28;20387;-75
2023/05/18 05:26:13;;;;;;;;;;;12.60;99.90;;;;;;5069493;28;19909;-75
2023/05/18 05:28:39;;;;;;;;;;;12.60;99.90;;;;;;5069018;28;19908;-76
2023/05/18 05:31:05;;;;;;;;;;;12.60;99.90;;;;;;5069385;28;19920;-74
2023/05/18 05:33:30;;;;;;;;;;;12.60;99.90;;;;;;5069448;28;19915;-75
2023/05/18 05:35:56;;;;;;;;;;;12.60;99.90;;;;;;5069484;28;19908;-75
2023/05/18 05:38:21;;;;;;;;;;;12.70;99.90;;;;;;5069526;28;19914;-75
2023/05/18 05:40:47;;;;;;;;;;;12.70;99.90;;;;;;5069163;28;19904;-75
2023/05/18 05:43:12;;;;;;;;;;;12.80;99.90;;;;;;5084943;28;19915;-75
2023/05/18 05:45:38;;;;;;;;;;;12.80;99.90;;;;;;5069099;28;19904;-76
2023/05/18 05:48:04;;;;;;;;;;;12.80;99.90;;;;;;5068971;28;20265;-75
2023/05/18 05:50:30;;;;;;;;;;;12.80;99.90;;;;;;5069088;28;19912;-76
2023/05/18 05:52:56;;;;;;;;;;;12.70;99.90;;;;;;5068948;28;20277;-75
2023/05/18 05:55:22;;;;;;;;;;;12.80;99.90;;;;;;5068862;28;19934;-75
2023/05/18 05:57:47;;;;;;;;;;;12.80;99.90;;;;;;5084476;28;19934;-75
2023/05/18 06:00:13;;;;;;;;;;;12.80;99.90;;;;;;5068869;28;19908;-75
2023/05/18 06:02:39;;;;;;;;;;;12.70;99.90;;;;;;5068819;28;19908;-76
2023/05/18 06:05:06;;;;;;;;;;;12.70;99.90;;;;;;5084430;28;19942;-76
2023/05/18 06:07:31;;;;;;;;;;;12.60;99.90;;;;;;5067661;28;19914;-75
2023/05/18 06:09:57;;;;;;;;;;;12.50;99.90;;;;;;5068636;28;19912;-74
2023/05/18 06:12:22;;;;;;;;;;;12.60;99.90;;;;;;5068908;28;19962;-75
2023/05/18 06:14:48;;;;;;;;;;;12.60;99.90;;;;;;5068548;28;20323;-74
2023/05/18 06:17:14;;;;;;;;;;;12.60;99.90;;;;;;5068679;28;20029;-75
2023/05/18 06:19:39;;;;;;;;;;;12.60;99.90;;;;;;5069085;28;19970;-75
2023/05/18 06:22:05;;;;;;;;;;;12.60;99.90;;;;;;5068925;28;19913;-76
2023/05/18 06:24:31;;;;;;;;;;;12.60;99.90;;;;;;5069046;28;19909;-76
2023/05/18 06:26:56;;;;;;;;;;;12.70;99.90;;;;;;5068796;28;19908;-77
2023/05/18 06:29:22;;;;;;;;;;;12.80;99.90;;;;;;5068530;28;19920;-75
2023/05/18 06:31:47;;;;;;;;;;;12.80;99.90;;;;;;5068871;28;19974;-76
2023/05/18 06:34:13;;;;;;;;;;;12.90;99.90;;;;;;5068768;28;19957;-74
2023/05/18 06:36:38;;;;;;;;;;;13.00;99.90;;;;;;5068456;28;20472;-75
2023/05/18 06:39:04;;;;;;;;;;;13.00;99.90;;;;;;5068756;28;20455;-75
2023/05/18 06:41:30;;;;;;;;;;;13.10;99.90;;;;;;5068671;28;19908;-75
2023/05/18 06:43:59;;;;;;;;;;;13.10;99.90;;;;;;5068649;28;19916;-75
2023/05/18 06:46:25;;;;;;;;;;;13.20;99.90;;;;;;5068523;28;19912;-76
2023/05/18 06:48:51;;;;;;;;;;;13.20;99.90;;;;;;5068221;28;19915;-77
2023/05/18 06:51:16;;;;;;;;;;;13.20;99.90;;;;;;5068407;28;19999;-76
2023/05/18 06:53:42;;;;;;;;;;;13.20;99.90;;;;;;5068398;28;20350;-75
2023/05/18 06:56:10;;;;;;;;;;;13.30;99.90;;;;;;5084208;28;19904;-75
2023/05/18 06:58:36;;;;;;;;;;;13.30;99.90;;;;;;5068096;28;19920;-75
2023/05/18 07:01:01;;;;;;;;;;;13.30;99.90;;;;;;5083828;28;19958;-75
2023/05/18 07:03:28;;;;;;;;;;;13.30;99.90;;;;;;5068635;28;20337;-76
2023/05/18 07:05:54;;;;;;;;;;;13.40;99.90;;;;;;5068298;28;19908;-75
2023/05/18 07:08:19;;;;;;;;;;;13.40;99.90;;;;;;5084271;28;19911;-76
2023/05/18 07:10:45;;;;;;;;;;;13.40;99.90;;;;;;5067973;28;20438;-76
2023/05/18 07:13:11;;;;;;;;;;;13.50;99.90;;;;;;5068247;28;19904;-75
2023/05/18 07:15:37;;;;;;;;;;;13.50;99.90;;;;;;5068453;28;19904;-76
2023/05/18 07:18:02;;;;;;;;;;;13.50;99.90;;;;;;5068282;28;19904;-76
2023/05/18 07:20:28;;;;;;;;;;;13.60;99.90;;;;;;5068453;28;19919;-75
2023/05/18 07:22:54;;;;;;;;;;;13.70;99.90;;;;;;5068070;28;19908;-76
2023/05/18 07:25:20;;;;;;;;;;;13.70;99.90;;;;;;5083913;28;19912;-75
2023/05/18 07:27:46;;;;;;;;;;;13.60;99.90;;;;;;5068134;28;20432;-76
2023/05/18 07:30:11;;;;;;;;;;;13.70;99.90;;;;;;5069709;28;19949;-75
2023/05/18 07:32:37;;;;;;;;;;;13.70;99.90;;;;;;5071567;28;19999;-76
2023/05/18 07:35:03;;;;;;;;;;;13.80;99.90;;;;;;5071295;28;19908;-75
2023/05/18 07:37:29;;;;;;;;;;;13.80;99.90;;;;;;5071486;28;19915;-75
2023/05/18 07:39:55;;;;;;;;;;;13.80;99.90;;;;;;5071476;28;19913;-74
2023/05/18 07:42:21;;;;;;;;;;;13.90;99.90;;;;;;5071743;28;19904;-76
2023/05/18 07:44:46;;;;;;;;;;;14.20;99.90;;;;;;5071244;28;20007;-75
2023/05/18 07:47:12;;;;;;;;;;;14.20;99.90;;;;;;5086873;28;19947;-75
2023/05/18 07:49:41;;;;;;;;;;;14.10;99.90;;;;;;5071173;28;19923;-77
2023/05/18 07:52:07;;;;;;;;;;;14.30;99.90;;;;;;5071290;28;19915;-75
2023/05/18 07:54:33;;;;;;;;;;;14.50;99.90;;;;;;5069984;28;19904;-75
2023/05/18 07:56:59;;;;;;;;;;;14.70;99.90;;;;;;5071680;28;19935;-75
2023/05/18 07:59:24;;;;;;;;;;;14.80;99.90;;;;;;5086920;28;20134;-75
2023/05/18 08:01:50;;;;;;;;;;;15.10;99.90;;;;;;5086592;28;20650;-75
2023/05/18 08:04:15;;;;;;;;;;;15.20;99.90;;;;;;5086807;28;20343;-75
2023/05/18 08:06:41;;;;;;;;;;;15.60;99.90;;;;;;5070863;28;19908;-76
2023/05/18 08:09:06;;;;;;;;;;;15.70;99.90;;;;;;5071070;28;20368;-75
2023/05/18 08:11:32;;;;;;;;;;;15.90;99.90;;;;;;5086374;28;19916;-75
2023/05/18 08:13:57;;;;;;;;;;;16.00;99.90;;;;;;5086329;28;19908;-76
2023/05/18 08:16:23;;;;;;;;;;;16.20;99.90;;;;;;5070769;28;20428;-76
2023/05/18 08:18:49;;;;;;;;;;;16.10;99.90;;;;;;5070546;28;19915;-77
2023/05/18 08:21:15;;;;;;;;;;;16.20;99.90;;;;;;5070752;28;19912;-76
2023/05/18 08:23:41;;;;;;;;;;;16.20;99.90;;;;;;5070732;28;19915;-75
2023/05/18 08:26:07;;;;;;;;;;;16.10;99.90;;;;;;5070541;28;19999;-75
2023/05/18 08:28:33;;;;;;;;;;;16.20;99.90;;;;;;5070461;28;20456;-75
2023/05/18 08:31:00;;;;;;;;;;;16.10;99.90;;;;;;5070549;28;19924;-77
2023/05/18 08:33:25;;;;;;;;;;;16.00;99.90;;;;;;5070378;28;20304;-76
2023/05/18 08:35:51;;;;;;;;;;;16.00;99.90;;;;;;5070583;28;19904;-75
2023/05/18 08:38:17;;;;;;;;;;;16.10;99.90;;;;;;5070494;28;19909;-77
2023/05/18 08:40:49;;;;;;;;;;;16.00;99.90;;;;;;5070100;28;19962;-75
2023/05/18 08:43:19;;;;;;;;;;;16.00;99.90;;;;;;5070338;28;20027;-76
2023/05/18 08:45:53;;;;;;;;;;;15.90;99.90;;;;;;5070372;28;19995;-77
2023/05/18 08:48:21;;;;;;;;;;;15.90;99.90;;;;;;5070439;28;20006;-76
2023/05/18 08:50:48;;;;;;;;;;;16.10;99.90;;;;;;5069933;28;19919;-78
2023/05/18 08:53:15;;;;;;;;;;;16.30;99.90;;;;;;5070044;28;19904;-75
2023/05/18 08:55:41;;;;;;;;;;;16.30;99.90;;;;;;5070250;28;19915;-77
2023/05/18 08:58:08;;;;;;;;;;;16.30;99.90;;;;;;5069924;28;19908;-76
2023/05/18 09:00:33;;;;;;;;;;;16.30;99.90;;;;;;5085537;28;19908;-76
2023/05/18 09:03:00;;;;;;;;;;;16.40;99.90;;;;;;5085187;28;19969;-76
2023/05/18 09:05:26;;;;;;;;;;;16.50;99.90;;;;;;5069768;28;20388;-76
2023/05/18 09:07:53;;;;;;;;;;;16.50;99.90;;;;;;5069705;28;20001;-76
2023/05/18 09:10:19;;;;;;;;;;;16.50;99.90;;;;;;5069718;28;19999;-75
2023/05/18 09:12:47;;;;;;;;;;;16.40;99.90;;;;;;5068400;28;20483;-76
2023/05/18 09:15:14;;;;;;;;;;;16.30;99.90;;;;;;5086154;28;20281;-75
2023/05/18 09:17:39;;;;;;;;;;;16.20;99.90;;;;;;5069606;28;19935;-76
2023/05/18 09:20:07;;;;;;;;;;;16.10;99.90;;;;;;5069555;28;20541;-77
2023/05/18 09:22:34;;;;;;;;;;;16.30;99.90;;;;;;5069612;28;19998;-77
2023/05/18 09:25:01;;;;;;;;;;;16.20;99.90;;;;;;5069335;28;19909;-77
2023/05/18 09:27:26;;;;;;;;;;;16.10;99.90;;;;;;5069434;28;20254;-76
2023/05/18 09:29:55;;;;;;;;;;;16.00;99.90;;;;;;5085029;28;19923;-74
2023/05/18 09:32:21;;;;;;;;;;;16.00;99.90;;;;;;5069410;28;19912;-75
2023/05/18 09:34:47;;;;;;;;;;;15.90;99.90;;;;;;5069572;28;20424;-76
2023/05/18 09:37:17;;;;;;;;;;;15.80;99.90;;;;;;5069450;28;19915;-75
2023/05/18 09:39:43;;;;;;;;;;;15.80;99.90;;;;;;5069221;28;19915;-77
2023/05/18 09:42:08;;;;;;;;;;;15.80;99.90;;;;;;5069495;28;19905;-76
2023/05/18 09:44:34;;;;;;;;;;;15.80;99.90;;;;;;5069210;28;20377;-75
2023/05/18 09:47:00;;;;;;;;;;;15.80;99.90;;;;;;5068879;28;19904;-75
2023/05/18 09:49:27;;;;;;;;;;;15.80;99.90;;;;;;5069015;28;19912;-76
2023/05/18 09:51:53;;;;;;;;;;;15.60;99.90;;;;;;5068562;28;19915;-76
2023/05/18 09:54:18;;;;;;;;;;;15.50;99.90;;;;;;5068948;28;19912;-75
2023/05/18 09:56:47;;;;;;;;;;;15.50;99.90;;;;;;5068869;28;19904;-76
2023/05/18 09:59:13;;;;;;;;;;;15.40;99.90;;;;;;5068990;28;19908;-77
2023/05/18 10:02:04;;;;;;;;;;;15.30;99.90;;;;;;5069035;28;19904;-78
2023/05/18 10:04:42;;;;;;;;;;;15.20;99.90;;;;;;5069062;28;19987;-76
2023/05/18 10:07:11;;;;;;;;;;;15.10;99.90;;;;;;5068935;28;19908;-76
2023/05/18 10:09:38;;;;;;;;;;;15.00;99.90;;;;;;5068765;28;20447;-75
2023/05/18 10:12:09;;;;;;;;;;;14.90;99.90;;;;;;5068916;28;20139;-76
2023/05/18 10:14:35;;;;;;;;;;;14.80;99.90;;;;;;5068850;28;20609;-77
2023/05/18 10:17:02;;;;;;;;;;;14.80;99.90;;;;;;5068889;28;20227;-77
2023/05/18 10:19:29;;;;;;;;;;;14.70;99.90;;;;;;5068789;28;19916;-76
2023/05/18 10:21:54;;;;;;;;;;;14.70;99.90;;;;;;5068707;28;20380;-76
2023/05/18 10:24:20;;;;;;;;;;;14.70;99.90;;;;;;5068858;28;19908;-76
2023/05/18 10:26:47;;;;;;;;;;;14.70;99.90;;;;;;5068438;28;19954;-77
2023/05/18 10:29:13;;;;;;;;;;;14.80;99.90;;;;;;5067301;28;19920;-76
2023/05/18 10:31:40;;;;;;;;;;;14.80;99.90;;;;;;5067465;28;19919;-77
2023/05/18 10:34:07;;;;;;;;;;;14.90;99.90;;;;;;5084050;28;19930;-79
2023/05/18 10:36:34;;;;;;;;;;;14.90;99.90;;;;;;5068822;28;19912;-76
2023/05/18 10:39:01;;;;;;;;;;;14.80;99.90;;;;;;5068538;28;19958;-76
2023/05/18 10:41:29;;;;;;;;;;;14.80;99.90;;;;;;5068587;28;19908;-76
2023/05/18 10:44:01;;;;;;;;;;;14.80;99.90;;;;;;5068571;28;19908;-76
2023/05/18 10:46:27;;;;;;;;;;;14.90;99.90;;;;;;5084185;28;20411;-76
2023/05/18 10:48:52;;;;;;;;;;;14.90;99.90;;;;;;5084177;28;19955;-76
2023/05/18 10:51:19;;;;;;;;;;;14.90;99.90;;;;;;5068593;28;19944;-77
2023/05/18 10:53:46;;;;;;;;;;;15.00;99.90;;;;;;5068546;28;19908;-75
2023/05/18 10:56:14;;;;;;;;;;;15.00;99.90;;;;;;5083915;28;20403;-76
2023/05/18 10:58:40;;;;;;;;;;;15.10;99.90;;;;;;5068520;28;19908;-77
2023/05/18 11:01:07;;;;;;;;;;;15.10;99.90;;;;;;5068590;28;19958;-76
2023/05/18 11:03:33;;;;;;;;;;;15.10;99.90;;;;;;5068485;28;19961;-77
2023/05/18 11:06:07;;;;;;;;;;;15.20;99.90;;;;;;5071679;28;19909;-76
2023/05/18 11:08:32;;;;;;;;;;;15.20;99.90;;;;;;5072377;28;20003;-76
2023/05/18 11:11:06;;;;;;;;;;;15.10;99.90;;;;;;5071981;28;20468;-77
2023/05/18 11:13:33;;;;;;;;;;;15.20;99.90;;;;;;5072103;28;19965;-77
2023/05/18 11:15:58;;;;;;;;;;;15.20;99.90;;;;;;5072047;28;19905;-76
2023/05/18 11:18:33;;;;;;;;;;;15.20;99.90;;;;;;5087738;28;20268;-75
2023/05/18 11:20:58;;;;;;;;;;;15.40;99.90;;;;;;5071698;28;19904;-76
2023/05/18 11:23:24;;;;;;;;;;;15.50;99.90;;;;;;5071685;28;19915;-76
2023/05/18 11:25:50;;;;;;;;;;;15.50;99.90;;;;;;5071836;28;19904;-75
2023/05/18 11:28:16;;;;;;;;;;;15.50;99.90;;;;;;5071583;28;20407;-75
2023/05/18 11:30:43;;;;;;;;;;;15.50;99.90;;;;;;5071359;28;19955;-76
2023/05/18 11:33:10;;;;;;;;;;;15.30;99.90;;;;;;5071657;28;19930;-76
2023/05/18 11:35:55;;;;;;;;;;;15.30;99.90;;;;;;5071657;28;20358;-75
2023/05/18 11:38:21;;;;;;;;;;;15.20;99.90;;;;;;5067499;28;19908;-76
2023/05/18 11:40:48;;;;;;;;;;;15.10;99.90;;;;;;5072918;28;19904;-74
2023/05/18 11:43:18;;;;;;;;;;;15.10;99.90;;;;;;5071554;28;19904;-74
2023/05/18 11:45:54;;;;;;;;;;;15.00;99.90;;;;;;5071592;28;19936;-74
2023/05/18 11:48:21;;;;;;;;;;;14.90;99.90;;;;;;5071578;28;19958;-75
2023/05/18 11:50:46;;;;;;;;;;;14.90;99.90;;;;;;5071164;28;19916;-76
2023/05/18 11:53:16;;;;;;;;;;;14.80;99.90;;;;;;5071440;28;19939;-74
2023/05/18 11:55:41;;;;;;;;;;;14.70;99.90;;;;;;5069995;28;19905;-76
2023/05/18 11:58:07;;;;;;;;;;;14.70;99.90;;;;;;5071231;28;20031;-75
2023/05/18 12:00:33;;;;;;;;;;;14.60;99.90;;;;;;5071353;28;19908;-76
2023/05/18 12:02:59;;;;;;;;;;;14.40;99.90;;;;;;5071004;28;19904;-75
2023/05/18 12:05:28;;;;;;;;;;;14.40;99.90;;;;;;5071072;28;20003;-76
2023/05/18 12:07:54;;;;;;;;;;;14.30;99.90;;;;;;5070903;28;20316;-75
2023/05/18 12:10:20;;;;;;;;;;;14.20;99.90;;;;;;5071071;28;19912;-75
2023/05/18 12:12:55;;;;;;;;;;;14.20;99.90;;;;;;5070540;28;20003;-76
2023/05/18 12:15:22;;;;;;;;;;;14.20;99.90;;;;;;5070475;28;19930;-75
2023/05/18 12:17:48;;;;;;;;;;;14.00;99.90;;;;;;5070800;28;19908;-74
2023/05/18 12:20:17;;;;;;;;;;;14.00;99.90;;;;;;5070811;28;19977;-74
2023/05/18 12:22:51;;;;;;;;;;;13.90;99.90;;;;;;5070580;28;19910;-75
2023/05/18 12:25:17;;;;;;;;;;;13.90;99.90;;;;;;5070727;28;19969;-75
2023/05/18 12:27:43;;;;;;;;;;;13.80;99.90;;;;;;5086294;28;19916;-75
2023/05/18 12:30:13;;;;;;;;;;;13.80;99.90;;;;;;5070442;28;20316;-75
2023/05/18 12:32:42;;;;;;;;;;;13.80;99.90;;;;;;5070790;28;19931;-74
2023/05/18 12:35:08;;;;;;;;;;;13.80;99.90;;;;;;5070754;28;19922;-75
2023/05/18 12:37:40;;;;;;;;;;;13.70;99.90;;;;;;5070676;28;19908;-75
2023/05/18 12:40:06;;;;;;;;;;;13.70;99.90;;;;;;5070604;28;20363;-76
2023/05/18 12:42:31;;;;;;;;;;;13.70;99.90;;;;;;5068864;28;20460;-75
2023/05/18 12:44:57;;;;;;;;;;;13.70;99.90;;;;;;5070179;28;19912;-73
2023/05/18 12:47:22;;;;;;;;;;;13.80;99.90;;;;;;5086012;28;19961;-75
2023/05/18 12:49:48;;;;;;;;;;;13.70;99.90;;;;;;5069085;28;20019;-76
2023/05/18 12:52:15;;;;;;;;;;;13.70;99.90;;;;;;5070477;28;19919;-76
2023/05/18 12:55:00;;;;;;;;;;;13.80;99.90;;;;;;5069846;28;19908;-74
2023/05/18 12:57:26;;;;;;;;;;;14.00;99.90;;;;;;5070150;28;20327;-75
2023/05/18 12:59:52;;;;;;;;;;;14.10;99.90;;;;;;5070013;28;19908;-74
2023/05/18 13:02:30;;;;;;;;;;;14.10;99.90;;;;;;5070228;28;20033;-76
2023/05/18 13:05:09;;;;;;;;;;;14.20;99.90;;;;;;5085084;28;19962;-76
2023/05/18 13:07:36;;;;;;;;;;;14.30;99.90;;;;;;5069640;28;19948;-74
2023/05/18 13:10:09;;;;;;;;;;;14.40;99.90;;;;;;5069564;28;20481;-75
2023/05/18 13:12:44;;;;;;;;;;;14.40;99.90;;;;;;5069712;28;20590;-74
2023/05/18 13:15:11;;;;;;;;;;;14.30;99.90;;;;;;5069667;28;20006;-75
2023/05/18 13:17:36;;;;;;;;;;;14.30;99.90;;;;;;5069457;28;19954;-76
2023/05/18 13:20:03;;;;;;;;;;;14.30;99.90;;;;;;5069538;28;19908;-74
2023/05/18 13:22:28;;;;;;;;;;;14.30;99.90;;;;;;5069675;28;19952;-75
2023/05/18 13:24:54;;;;;;;;;;;14.30;99.90;;;;;;5069362;28;19951;-75
2023/05/18 13:27:19;;;;;;;;;;;14.30;99.90;;;;;;5068638;28;19915;-74
2023/05/18 13:29:45;;;;;;;;;;;14.30;99.90;;;;;;5069161;28;19963;-76
2023/05/18 13:32:11;;;;;;;;;;;14.30;99.90;;;;;;5069328;28;20003;-75
2023/05/18 13:34:36;;;;;;;;;;;14.30;99.90;;;;;;5084548;28;19950;-75
2023/05/18 13:37:02;;;;;;;;;;;14.30;99.90;;;;;;5069340;28;19961;-76
2023/05/18 13:39:27;;;;;;;;;;;14.30;99.90;;;;;;5084977;28;19909;-75
2023/05/18 13:41:53;;;;;;;;;;;14.40;99.90;;;;;;5069582;28;20016;-76
2023/05/18 13:44:19;;;;;;;;;;;14.40;99.90;;;;;;5069292;28;20289;-76
2023/05/18 13:46:44;;;;;;;;;;;14.40;99.90;;;;;;5069166;28;19908;-76
2023/05/18 13:49:11;;;;;;;;;;;14.40;99.90;;;;;;5069119;28;19930;-75
2023/05/18 13:51:37;;;;;;;;;;;14.40;99.90;;;;;;5069450;28;19970;-75
2023/05/18 13:54:02;;;;;;;;;;;14.40;99.90;;;;;;5068994;28;19912;-76
2023/05/18 13:56:28;;;;;;;;;;;14.40;99.90;;;;;;5069255;28;19905;-75
2023/05/18 13:58:53;;;;;;;;;;;14.40;99.90;;;;;;5069006;28;19915;-75
2023/05/18 14:01:21;;;;;;;;;;;14.40;99.90;;;;;;5069446;28;19904;-76
2023/05/18 14:03:46;;;;;;;;;;;14.50;99.90;;;;;;5068972;28;20353;-75
2023/05/18 14:06:12;;;;;;;;;;;14.60;99.90;;;;;;5068939;28;19908;-75
2023/05/18 14:08:37;;;;;;;;;;;14.70;99.90;;;;;;5068636;28;19915;-75
2023/05/18 14:11:03;;;;;;;;;;;14.80;99.90;;;;;;5068821;28;19978;-76
2023/05/18 14:13:28;;;;;;;;;;;14.80;99.90;;;;;;5068636;28;20368;-77
2023/05/18 14:15:54;;;;;;;;;;;14.80;99.90;;;;;;5068884;28;20335;-75